sensor_id;sensor_type;location;lat;lon;timestamp;pressure;altitude;pressure_sealevel;temperature;humidity
31717;BME280;18301;51.076;17.046;2023-06-04T00:03:38;100634.19;;;12.65;50.06
31717;BME280;18301;51.076;17.046;2023-06-04T00:08:40;100632.81;;;12.60;49.97
31717;BME280;18301;51.076;17.046;2023-06-04T00:13:41;100636.72;;;12.56;50.78
31717;BME280;18301;51.076;17.046;2023-06-04T00:18:43;100641.28;;;12.55;51.11
31717;BME280;18301;51.076;17.046;2023-06-04T00:23:44;100632.97;;;12.34;51.58
31717;BME280;18301;51.076;17.046;2023-06-04T00:28:46;100633.69;;;12.25;51.66
31717;BME280;18301;51.076;17.046;2023-06-04T00:33:48;100631.59;;;12.17;52.17
31717;BME280;18301;51.076;17.046;2023-06-04T00:38:49;100629.34;;;12.11;52.47
31717;BME280;18301;51.076;17.046;2023-06-04T00:43:51;100614.13;;;12.10;52.94
31717;BME280;18301;51.076;17.046;2023-06-04T00:48:59;100625.63;;;12.01;52.50
31717;BME280;18301;51.076;17.046;2023-06-04T00:54:02;100614.22;;;11.85;53.59
31717;BME280;18301;51.076;17.046;2023-06-04T00:59:10;100615.44;;;11.81;53.83
31717;BME280;18301;51.076;17.046;2023-06-04T01:04:23;100605.00;;;11.63;54.53
31717;BME280;18301;51.076;17.046;2023-06-04T01:09:26;100610.41;;;11.63;54.26
31717;BME280;18301;51.076;17.046;2023-06-04T01:14:29;100615.81;;;11.63;53.79
31717;BME280;18301;51.076;17.046;2023-06-04T01:24:59;100611.31;;;11.51;53.93
31717;BME280;18301;51.076;17.046;2023-06-04T01:30:04;100623.13;;;11.50;54.58
31717;BME280;18301;51.076;17.046;2023-06-04T01:35:11;100613.31;;;11.49;54.57
31717;BME280;18301;51.076;17.046;2023-06-04T01:40:13;100617.41;;;11.42;55.14
31717;BME280;18301;51.076;17.046;2023-06-04T01:45:14;100613.97;;;11.40;55.34
31717;BME280;18301;51.076;17.046;2023-06-04T01:50:16;100611.59;;;11.35;55.66
31717;BME280;18301;51.076;17.046;2023-06-04T01:55:18;100625.47;;;11.31;55.18
31717;BME280;18301;51.076;17.046;2023-06-04T02:00:20;100621.38;;;11.25;55.94
31717;BME280;18301;51.076;17.046;2023-06-04T02:05:21;100620.50;;;11.24;55.49
31717;BME280;18301;51.076;17.046;2023-06-04T02:10:23;100622.13;;;11.14;56.46
31717;BME280;18301;51.076;17.046;2023-06-04T02:15:25;100613.19;;;11.14;56.11
31717;BME280;18301;51.076;17.046;2023-06-04T02:20:27;100622.72;;;11.06;56.55
31717;BME280;18301;51.076;17.046;2023-06-04T02:25:28;100622.28;;;11.00;56.73
31717;BME280;18301;51.076;17.046;2023-06-04T02:30:30;100616.91;;;11.00;56.76
31717;BME280;18301;51.076;17.046;2023-06-04T02:35:31;100625.31;;;10.95;57.26
31717;BME280;18301;51.076;17.046;2023-06-04T02:40:33;100621.88;;;10.93;57.35
31717;BME280;18301;51.076;17.046;2023-06-04T02:45:35;100625.53;;;10.79;57.77
31717;BME280;18301;51.076;17.046;2023-06-04T02:50:36;100630.41;;;10.74;57.82
31717;BME280;18301;51.076;17.046;2023-06-04T02:55:38;100623.84;;;10.78;57.78
31717;BME280;18301;51.076;17.046;2023-06-04T03:00:39;100623.63;;;10.81;57.78
31717;BME280;18301;51.076;17.046;2023-06-04T03:05:41;100625.75;;;10.76;57.96
31717;BME280;18301;51.076;17.046;2023-06-04T03:10:44;100632.16;;;10.75;58.49
31717;BME280;18301;51.076;17.046;2023-06-04T03:15:45;100635.50;;;10.79;58.25
31717;BME280;18301;51.076;17.046;2023-06-04T03:20:49;100640.31;;;10.87;58.15
31717;BME280;18301;51.076;17.046;2023-06-04T03:25:51;100650.31;;;11.23;58.42
31717;BME280;18301;51.076;17.046;2023-06-04T03:30:52;100647.97;;;11.79;56.93
31717;BME280;18301;51.076;17.046;2023-06-04T03:35:54;100649.78;;;11.67;56.88
31717;BME280;18301;51.076;17.046;2023-06-04T03:40:58;100652.72;;;11.64;56.75
31717;BME280;18301;51.076;17.046;2023-06-04T03:46:00;100648.50;;;11.60;57.00
31717;BME280;18301;51.076;17.046;2023-06-04T03:51:01;100649.56;;;11.70;56.87
31717;BME280;18301;51.076;17.046;2023-06-04T03:56:03;100647.50;;;11.98;56.55
31717;BME280;18301;51.076;17.046;2023-06-04T04:01:05;100644.94;;;12.32;56.31
31717;BME280;18301;51.076;17.046;2023-06-04T04:06:06;100649.66;;;12.63;55.21
31717;BME280;18301;51.076;17.046;2023-06-04T04:11:08;100657.66;;;12.65;55.06
31717;BME280;18301;51.076;17.046;2023-06-04T04:16:10;100649.06;;;12.60;54.93
31717;BME280;18301;51.076;17.046;2023-06-04T04:21:11;100649.19;;;12.70;54.72
31717;BME280;18301;51.076;17.046;2023-06-04T04:26:13;100649.69;;;12.75;54.99
31717;BME280;18301;51.076;17.046;2023-06-04T04:31:17;100657.81;;;12.75;54.70
31717;BME280;18301;51.076;17.046;2023-06-04T04:36:19;100655.72;;;12.89;54.36
31717;BME280;18301;51.076;17.046;2023-06-04T04:41:25;100662.88;;;13.13;54.02
31717;BME280;18301;51.076;17.046;2023-06-04T04:46:27;100658.56;;;13.10;53.73
31717;BME280;18301;51.076;17.046;2023-06-04T04:51:28;100666.72;;;13.44;53.65
31717;BME280;18301;51.076;17.046;2023-06-04T04:56:33;100663.13;;;13.55;53.79
31717;BME280;18301;51.076;17.046;2023-06-04T05:01:35;100663.34;;;14.07;52.88
31717;BME280;18301;51.076;17.046;2023-06-04T05:06:37;100673.44;;;14.37;52.11
31717;BME280;18301;51.076;17.046;2023-06-04T05:11:39;100664.88;;;14.53;50.93
31717;BME280;18301;51.076;17.046;2023-06-04T05:16:40;100666.13;;;14.90;50.54
31717;BME280;18301;51.076;17.046;2023-06-04T05:21:44;100662.88;;;14.96;50.46
31717;BME280;18301;51.076;17.046;2023-06-04T05:26:45;100664.91;;;15.04;50.48
31717;BME280;18301;51.076;17.046;2023-06-04T05:31:49;100669.75;;;15.31;50.26
31717;BME280;18301;51.076;17.046;2023-06-04T05:36:51;100667.31;;;15.38;50.38
31717;BME280;18301;51.076;17.046;2023-06-04T05:41:53;100668.28;;;15.58;50.06
31717;BME280;18301;51.076;17.046;2023-06-04T05:46:55;100676.06;;;15.82;49.51
31717;BME280;18301;51.076;17.046;2023-06-04T05:51:56;100673.97;;;15.95;49.62
31717;BME280;18301;51.076;17.046;2023-06-04T05:56:58;100679.41;;;16.05;49.75
31717;BME280;18301;51.076;17.046;2023-06-04T06:02:00;100677.84;;;16.51;48.76
31717;BME280;18301;51.076;17.046;2023-06-04T06:07:02;100673.38;;;16.60;48.00
31717;BME280;18301;51.076;17.046;2023-06-04T06:12:04;100665.31;;;16.77;48.78
31717;BME280;18301;51.076;17.046;2023-06-04T06:17:06;100676.81;;;16.81;48.96
31717;BME280;18301;51.076;17.046;2023-06-04T06:22:08;100682.34;;;16.99;48.09
31717;BME280;18301;51.076;17.046;2023-06-04T06:27:10;100680.19;;;17.12;48.22
31717;BME280;18301;51.076;17.046;2023-06-04T06:32:12;100680.03;;;17.41;47.52
31717;BME280;18301;51.076;17.046;2023-06-04T06:37:14;100685.97;;;17.27;46.73
31717;BME280;18301;51.076;17.046;2023-06-04T06:42:15;100685.66;;;17.67;47.05
31717;BME280;18301;51.076;17.046;2023-06-04T06:47:18;100688.56;;;18.11;46.06
31717;BME280;18301;51.076;17.046;2023-06-04T06:52:20;100685.91;;;18.37;44.69
31717;BME280;18301;51.076;17.046;2023-06-04T06:57:21;100697.84;;;18.18;45.46
31717;BME280;18301;51.076;17.046;2023-06-04T07:02:23;100692.31;;;18.46;44.57
31717;BME280;18301;51.076;17.046;2023-06-04T07:07:25;100693.56;;;18.52;44.49
31717;BME280;18301;51.076;17.046;2023-06-04T07:12:26;100688.13;;;18.78;44.35
31717;BME280;18301;51.076;17.046;2023-06-04T07:17:28;100690.03;;;19.03;44.33
31717;BME280;18301;51.076;17.046;2023-06-04T07:22:29;100699.63;;;19.07;43.12
31717;BME280;18301;51.076;17.046;2023-06-04T07:27:31;100700.50;;;19.08;43.26
31717;BME280;18301;51.076;17.046;2023-06-04T07:32:33;100691.63;;;19.40;42.68
31717;BME280;18301;51.076;17.046;2023-06-04T07:37:34;100691.44;;;19.68;42.04
31717;BME280;18301;51.076;17.046;2023-06-04T07:42:36;100693.16;;;19.69;41.82
31717;BME280;18301;51.076;17.046;2023-06-04T07:47:38;100687.38;;;19.88;39.77
31717;BME280;18301;51.076;17.046;2023-06-04T07:52:40;100693.78;;;19.63;41.44
31717;BME280;18301;51.076;17.046;2023-06-04T07:57:41;100683.31;;;20.00;41.69
31717;BME280;18301;51.076;17.046;2023-06-04T08:02:43;100689.28;;;20.04;40.65
31717;BME280;18301;51.076;17.046;2023-06-04T08:07:45;100685.91;;;20.18;40.01
31717;BME280;18301;51.076;17.046;2023-06-04T08:12:47;100688.16;;;20.39;40.01
31717;BME280;18301;51.076;17.046;2023-06-04T08:17:49;100691.28;;;20.53;40.49
31717;BME280;18301;51.076;17.046;2023-06-04T08:22:51;100691.66;;;20.66;38.13
31717;BME280;18301;51.076;17.046;2023-06-04T08:27:52;100690.25;;;20.62;38.04
31717;BME280;18301;51.076;17.046;2023-06-04T08:32:54;100690.25;;;20.62;37.36
31717;BME280;18301;51.076;17.046;2023-06-04T08:37:55;100691.09;;;20.62;38.66
31717;BME280;18301;51.076;17.046;2023-06-04T08:42:58;100697.13;;;20.82;37.15
31717;BME280;18301;51.076;17.046;2023-06-04T08:48:02;100688.34;;;20.95;36.31
31717;BME280;18301;51.076;17.046;2023-06-04T08:53:04;100697.38;;;21.12;35.87
31717;BME280;18301;51.076;17.046;2023-06-04T08:58:06;100697.38;;;21.12;36.56
31717;BME280;18301;51.076;17.046;2023-06-04T09:03:09;100716.09;;;21.25;35.24
31717;BME280;18301;51.076;17.046;2023-06-04T09:08:12;100700.84;;;21.06;36.61
31717;BME280;18301;51.076;17.046;2023-06-04T09:13:17;100698.06;;;21.22;36.79
31717;BME280;18301;51.076;17.046;2023-06-04T09:18:19;100703.16;;;21.33;36.12
31717;BME280;18301;51.076;17.046;2023-06-04T09:23:22;100692.22;;;21.42;35.79
31717;BME280;18301;51.076;17.046;2023-06-04T09:28:29;100693.91;;;21.51;34.96
31717;BME280;18301;51.076;17.046;2023-06-04T09:33:48;100700.47;;;21.17;35.37
31717;BME280;18301;51.076;17.046;2023-06-04T09:38:50;100688.59;;;21.33;35.48
31717;BME280;18301;51.076;17.046;2023-06-04T09:44:02;100697.84;;;21.48;34.78
31717;BME280;18301;51.076;17.046;2023-06-04T09:49:05;100690.78;;;21.54;35.45
31717;BME280;18301;51.076;17.046;2023-06-04T09:54:06;100683.78;;;21.35;35.64
31717;BME280;18301;51.076;17.046;2023-06-04T09:59:09;100673.38;;;22.01;35.08
31717;BME280;18301;51.076;17.046;2023-06-04T10:04:13;100665.41;;;22.14;33.45
31717;BME280;18301;51.076;17.046;2023-06-04T10:09:15;100670.25;;;22.04;32.26
31717;BME280;18301;51.076;17.046;2023-06-04T10:14:29;100672.53;;;22.00;32.13
31717;BME280;18301;51.076;17.046;2023-06-04T10:19:35;100667.09;;;22.15;33.12
31717;BME280;18301;51.076;17.046;2023-06-04T10:24:39;100665.19;;;22.47;33.00
31717;BME280;18301;51.076;17.046;2023-06-04T10:29:42;100653.94;;;22.34;31.10
31717;BME280;18301;51.076;17.046;2023-06-04T10:34:44;100653.16;;;22.48;32.14
31717;BME280;18301;51.076;17.046;2023-06-04T10:39:51;100665.31;;;22.31;32.06
31717;BME280;18301;51.076;17.046;2023-06-04T10:44:54;100656.09;;;22.23;31.40
31717;BME280;18301;51.076;17.046;2023-06-04T10:55:11;100649.66;;;22.31;32.03
31717;BME280;18301;51.076;17.046;2023-06-04T11:00:13;100643.41;;;22.60;34.27
31717;BME280;18301;51.076;17.046;2023-06-04T11:05:15;100652.94;;;22.72;32.11
31717;BME280;18301;51.076;17.046;2023-06-04T11:10:18;100644.16;;;22.54;31.77
31717;BME280;18301;51.076;17.046;2023-06-04T11:15:19;100647.06;;;22.75;32.13
31717;BME280;18301;51.076;17.046;2023-06-04T11:20:22;100645.03;;;23.07;30.95
31717;BME280;18301;51.076;17.046;2023-06-04T11:25:25;100638.16;;;22.50;30.84
31717;BME280;18301;51.076;17.046;2023-06-04T11:30:27;100634.50;;;22.58;31.69
31717;BME280;18301;51.076;17.046;2023-06-04T11:35:29;100641.19;;;22.79;30.96
31717;BME280;18301;51.076;17.046;2023-06-04T11:40:31;100646.94;;;22.69;31.45
31717;BME280;18301;51.076;17.046;2023-06-04T11:45:33;100629.78;;;22.67;31.89
31717;BME280;18301;51.076;17.046;2023-06-04T11:50:34;100629.31;;;22.78;31.59
31717;BME280;18301;51.076;17.046;2023-06-04T11:55:37;100628.44;;;22.78;31.32
31717;BME280;18301;51.076;17.046;2023-06-04T12:00:40;100620.78;;;22.73;29.80
31717;BME280;18301;51.076;17.046;2023-06-04T12:05:42;100624.03;;;22.91;29.80
31717;BME280;18301;51.076;17.046;2023-06-04T12:10:44;100625.38;;;22.95;31.58
31717;BME280;18301;51.076;17.046;2023-06-04T12:15:52;100630.81;;;23.04;30.19
31717;BME280;18301;51.076;17.046;2023-06-04T12:20:53;100621.06;;;22.93;30.77
31717;BME280;18301;51.076;17.046;2023-06-04T12:25:55;100616.56;;;23.00;31.58
31717;BME280;18301;51.076;17.046;2023-06-04T12:30:57;100619.81;;;23.18;30.92
31717;BME280;18301;51.076;17.046;2023-06-04T12:35:58;100609.63;;;23.19;30.75
31717;BME280;18301;51.076;17.046;2023-06-04T12:41:00;100602.91;;;23.22;30.89
31717;BME280;18301;51.076;17.046;2023-06-04T12:46:01;100615.41;;;23.39;30.90
31717;BME280;18301;51.076;17.046;2023-06-04T12:51:03;100607.66;;;23.28;31.10
31717;BME280;18301;51.076;17.046;2023-06-04T12:56:04;100604.00;;;23.42;31.39
31717;BME280;18301;51.076;17.046;2023-06-04T13:01:06;100608.81;;;23.55;31.06
31717;BME280;18301;51.076;17.046;2023-06-04T13:06:08;100605.81;;;23.35;30.67
31717;BME280;18301;51.076;17.046;2023-06-04T13:11:10;100609.88;;;23.39;31.01
31717;BME280;18301;51.076;17.046;2023-06-04T13:16:11;100607.66;;;23.28;30.92
31717;BME280;18301;51.076;17.046;2023-06-04T13:21:13;100608.09;;;23.31;31.30
31717;BME280;18301;51.076;17.046;2023-06-04T13:26:15;100590.91;;;23.44;30.71
31717;BME280;18301;51.076;17.046;2023-06-04T13:31:17;100581.78;;;23.43;30.00
31717;BME280;18301;51.076;17.046;2023-06-04T13:36:18;100579.63;;;23.60;30.13
31717;BME280;18301;51.076;17.046;2023-06-04T13:41:20;100583.84;;;23.56;29.99
31717;BME280;18301;51.076;17.046;2023-06-04T13:46:22;100596.56;;;23.57;30.22
31717;BME280;18301;51.076;17.046;2023-06-04T13:51:24;100590.00;;;23.73;29.69
31717;BME280;18301;51.076;17.046;2023-06-04T13:56:25;100582.22;;;23.62;28.85
31717;BME280;18301;51.076;17.046;2023-06-04T14:01:27;100580.50;;;23.25;29.79
31717;BME280;18301;51.076;17.046;2023-06-04T14:06:28;100572.78;;;23.35;30.60
31717;BME280;18301;51.076;17.046;2023-06-04T14:11:30;100572.38;;;23.53;29.39
31717;BME280;18301;51.076;17.046;2023-06-04T14:16:33;100574.91;;;23.54;29.34
31717;BME280;18301;51.076;17.046;2023-06-04T14:21:36;100567.06;;;23.36;30.04
31717;BME280;18301;51.076;17.046;2023-06-04T14:26:37;100562.13;;;23.47;30.56
31717;BME280;18301;51.076;17.046;2023-06-04T14:31:39;100567.63;;;23.47;30.43
31717;BME280;18301;51.076;17.046;2023-06-04T14:36:41;100557.84;;;23.44;30.80
31717;BME280;18301;51.076;17.046;2023-06-04T14:41:42;100559.31;;;23.61;30.48
31717;BME280;18301;51.076;17.046;2023-06-04T14:46:44;100553.66;;;23.48;31.06
31717;BME280;18301;51.076;17.046;2023-06-04T14:51:46;100563.50;;;23.57;30.64
31717;BME280;18301;51.076;17.046;2023-06-04T14:56:48;100554.06;;;23.66;30.28
31717;BME280;18301;51.076;17.046;2023-06-04T15:01:49;100540.16;;;23.53;30.29
31717;BME280;18301;51.076;17.046;2023-06-04T15:06:51;100548.53;;;23.45;29.79
31717;BME280;18301;51.076;17.046;2023-06-04T15:11:53;100544.34;;;23.49;30.68
31717;BME280;18301;51.076;17.046;2023-06-04T15:16:54;100547.59;;;23.38;30.76
31717;BME280;18301;51.076;17.046;2023-06-04T15:21:56;100543.09;;;23.15;29.79
31717;BME280;18301;51.076;17.046;2023-06-04T15:26:58;100531.19;;;23.15;30.48
31717;BME280;18301;51.076;17.046;2023-06-04T15:31:59;100534.06;;;23.22;30.61
31717;BME280;18301;51.076;17.046;2023-06-04T15:37:01;100533.78;;;23.16;31.10
31717;BME280;18301;51.076;17.046;2023-06-04T15:42:03;100534.16;;;23.13;31.02
31717;BME280;18301;51.076;17.046;2023-06-04T15:47:05;100543.38;;;23.06;30.69
31717;BME280;18301;51.076;17.046;2023-06-04T15:52:07;100526.13;;;22.97;30.69
31717;BME280;18301;51.076;17.046;2023-06-04T15:57:09;100526.56;;;22.86;30.22
31717;BME280;18301;51.076;17.046;2023-06-04T16:02:10;100538.41;;;22.86;31.03
31717;BME280;18301;51.076;17.046;2023-06-04T16:07:12;100523.38;;;22.97;30.60
31717;BME280;18301;51.076;17.046;2023-06-04T16:12:13;100524.09;;;22.91;29.84
31717;BME280;18301;51.076;17.046;2023-06-04T16:17:15;100524.38;;;22.81;30.85
31717;BME280;18301;51.076;17.046;2023-06-04T16:22:16;100526.56;;;22.71;31.16
31717;BME280;18301;51.076;17.046;2023-06-04T16:27:18;100520.78;;;22.51;30.74
31717;BME280;18301;51.076;17.046;2023-06-04T16:32:19;100518.97;;;22.88;30.52
31717;BME280;18301;51.076;17.046;2023-06-04T16:37:21;100526.34;;;22.43;30.52
31717;BME280;18301;51.076;17.046;2023-06-04T16:42:23;100537.16;;;22.29;30.61
31717;BME280;18301;51.076;17.046;2023-06-04T16:47:26;100541.66;;;22.22;30.89
31717;BME280;18301;51.076;17.046;2023-06-04T16:52:27;100526.16;;;22.29;30.48
31717;BME280;18301;51.076;17.046;2023-06-04T16:57:29;100540.34;;;22.18;30.43
31717;BME280;18301;51.076;17.046;2023-06-04T17:02:30;100539.66;;;22.16;30.62
31717;BME280;18301;51.076;17.046;2023-06-04T17:07:32;100539.81;;;22.15;30.79
31717;BME280;18301;51.076;17.046;2023-06-04T17:12:34;100538.50;;;22.11;30.63
31717;BME280;18301;51.076;17.046;2023-06-04T17:17:38;100542.22;;;21.95;30.95
31717;BME280;18301;51.076;17.046;2023-06-04T17:22:39;100541.00;;;21.97;30.69
31717;BME280;18301;51.076;17.046;2023-06-04T17:27:41;100548.75;;;21.94;30.51
31717;BME280;18301;51.076;17.046;2023-06-04T17:32:42;100543.38;;;21.77;31.04
31717;BME280;18301;51.076;17.046;2023-06-04T17:37:44;100546.19;;;21.69;30.86
31717;BME280;18301;51.076;17.046;2023-06-04T17:42:46;100552.38;;;21.71;30.93
31717;BME280;18301;51.076;17.046;2023-06-04T17:47:48;100541.41;;;21.63;30.66
31717;BME280;18301;51.076;17.046;2023-06-04T17:52:49;100542.81;;;21.59;30.25
31717;BME280;18301;51.076;17.046;2023-06-04T17:57:51;100537.38;;;21.51;30.49
31717;BME280;18301;51.076;17.046;2023-06-04T18:02:53;100542.63;;;21.37;31.80
31717;BME280;18301;51.076;17.046;2023-06-04T18:07:54;100536.63;;;21.26;31.32
31717;BME280;18301;51.076;17.046;2023-06-04T18:12:56;100544.53;;;21.21;31.46
31717;BME280;18301;51.076;17.046;2023-06-04T18:17:57;100541.84;;;21.12;31.83
31717;BME280;18301;51.076;17.046;2023-06-04T18:22:59;100547.00;;;21.07;32.38
31717;BME280;18301;51.076;17.046;2023-06-04T18:28:01;100541.25;;;20.94;32.76
31717;BME280;18301;51.076;17.046;2023-06-04T18:33:02;100555.66;;;20.88;33.19
31717;BME280;18301;51.076;17.046;2023-06-04T18:38:04;100551.94;;;20.73;33.63
31717;BME280;18301;51.076;17.046;2023-06-04T18:43:07;100555.22;;;20.60;34.29
31717;BME280;18301;51.076;17.046;2023-06-04T18:48:09;100557.28;;;20.41;34.80
31717;BME280;18301;51.076;17.046;2023-06-04T18:53:11;100573.72;;;20.25;35.49
31717;BME280;18301;51.076;17.046;2023-06-04T18:58:12;100568.25;;;20.09;36.32
31717;BME280;18301;51.076;17.046;2023-06-04T19:03:14;100577.16;;;19.94;36.85
31717;BME280;18301;51.076;17.046;2023-06-04T19:08:16;100577.47;;;19.75;37.45
31717;BME280;18301;51.076;17.046;2023-06-04T19:13:18;100586.63;;;19.58;37.98
31717;BME280;18301;51.076;17.046;2023-06-04T19:18:20;100594.31;;;19.46;38.43
31717;BME280;18301;51.076;17.046;2023-06-04T19:23:21;100594.44;;;19.36;38.42
31717;BME280;18301;51.076;17.046;2023-06-04T19:28:23;100601.22;;;19.24;38.17
31717;BME280;18301;51.076;17.046;2023-06-04T19:33:24;100598.22;;;19.35;37.40
31717;BME280;18301;51.076;17.046;2023-06-04T19:38:26;100609.34;;;19.42;37.34
31717;BME280;18301;51.076;17.046;2023-06-04T19:43:27;100603.34;;;19.38;37.23
31717;BME280;18301;51.076;17.046;2023-06-04T19:48:29;100600.56;;;19.30;37.11
31717;BME280;18301;51.076;17.046;2023-06-04T19:53:31;100608.75;;;19.22;37.54
31717;BME280;18301;51.076;17.046;2023-06-04T19:58:33;100617.97;;;19.21;37.60
31717;BME280;18301;51.076;17.046;2023-06-04T20:03:35;100618.94;;;19.03;38.23
31717;BME280;18301;51.076;17.046;2023-06-04T20:08:37;100627.78;;;18.97;38.05
31717;BME280;18301;51.076;17.046;2023-06-04T20:13:39;100629.28;;;18.92;38.33
31717;BME280;18301;51.076;17.046;2023-06-04T20:18:41;100625.97;;;18.80;38.64
31717;BME280;18301;51.076;17.046;2023-06-04T20:23:43;100632.69;;;18.68;38.81
31717;BME280;18301;51.076;17.046;2023-06-04T20:28:46;100631.63;;;18.60;38.97
31717;BME280;18301;51.076;17.046;2023-06-04T20:33:48;100639.75;;;18.52;39.63
31717;BME280;18301;51.076;17.046;2023-06-04T20:38:52;100642.97;;;18.48;39.85
31717;BME280;18301;51.076;17.046;2023-06-04T20:43:54;100641.97;;;18.31;39.67
31717;BME280;18301;51.076;17.046;2023-06-04T20:48:56;100646.34;;;18.24;40.04
31717;BME280;18301;51.076;17.046;2023-06-04T20:53:57;100649.00;;;18.15;40.14
31717;BME280;18301;51.076;17.046;2023-06-04T20:58:59;100655.06;;;18.09;40.26
31717;BME280;18301;51.076;17.046;2023-06-04T21:04:01;100654.00;;;18.02;40.23
31717;BME280;18301;51.076;17.046;2023-06-04T21:09:06;100645.03;;;17.92;40.29
31717;BME280;18301;51.076;17.046;2023-06-04T21:14:07;100655.00;;;17.83;40.39
31717;BME280;18301;51.076;17.046;2023-06-04T21:19:09;100659.31;;;17.76;40.94
31717;BME280;18301;51.076;17.046;2023-06-04T21:24:11;100652.50;;;17.62;41.19
31717;BME280;18301;51.076;17.046;2023-06-04T21:29:12;100652.25;;;17.56;41.41
31717;BME280;18301;51.076;17.046;2023-06-04T21:34:14;100646.25;;;17.52;41.31
31717;BME280;18301;51.076;17.046;2023-06-04T21:39:15;100654.03;;;17.47;41.69
31717;BME280;18301;51.076;17.046;2023-06-04T21:44:17;100653.59;;;17.42;41.80
31717;BME280;18301;51.076;17.046;2023-06-04T21:49:19;100658.81;;;17.35;41.74
31717;BME280;18301;51.076;17.046;2023-06-04T21:54:20;100667.03;;;17.25;41.97
31717;BME280;18301;51.076;17.046;2023-06-04T21:59:22;100665.63;;;17.21;42.60
31717;BME280;18301;51.076;17.046;2023-06-04T22:04:24;100664.50;;;17.14;42.25
31717;BME280;18301;51.076;17.046;2023-06-04T22:09:25;100669.56;;;17.09;42.31
31717;BME280;18301;51.076;17.046;2023-06-04T22:14:27;100669.44;;;17.01;42.35
31717;BME280;18301;51.076;17.046;2023-06-04T22:19:28;100666.00;;;16.99;42.58
31717;BME280;18301;51.076;17.046;2023-06-04T22:24:30;100668.31;;;16.94;42.89
31717;BME280;18301;51.076;17.046;2023-06-04T22:29:32;100663.75;;;16.85;43.26
31717;BME280;18301;51.076;17.046;2023-06-04T22:34:33;100664.34;;;16.78;43.13
31717;BME280;18301;51.076;17.046;2023-06-04T22:39:35;100669.91;;;16.77;43.32
31717;BME280;18301;51.076;17.046;2023-06-04T22:44:36;100660.63;;;16.60;43.65
31717;BME280;18301;51.076;17.046;2023-06-04T22:49:38;100665.34;;;16.58;43.86
31717;BME280;18301;51.076;17.046;2023-06-04T22:54:40;100666.50;;;16.46;43.94
31717;BME280;18301;51.076;17.046;2023-06-04T22:59:42;100667.34;;;16.46;43.86
31717;BME280;18301;51.076;17.046;2023-06-04T23:04:43;100666.81;;;16.33;44.45
31717;BME280;18301;51.076;17.046;2023-06-04T23:09:45;100660.91;;;16.28;44.33
31717;BME280;18301;51.076;17.046;2023-06-04T23:14:46;100661.78;;;16.28;44.49
31717;BME280;18301;51.076;17.046;2023-06-04T23:19:48;100663.63;;;16.18;44.52
31717;BME280;18301;51.076;17.046;2023-06-04T23:24:49;100667.78;;;16.03;44.89
31717;BME280;18301;51.076;17.046;2023-06-04T23:29:51;100661.78;;;15.99;45.03
31717;BME280;18301;51.076;17.046;2023-06-04T23:34:52;100671.38;;;15.94;44.99
31717;BME280;18301;51.076;17.046;2023-06-04T23:39:54;100669.75;;;15.81;46.25
31717;BME280;18301;51.076;17.046;2023-06-04T23:44:56;100670.88;;;15.69;46.50
31717;BME280;18301;51.076;17.046;2023-06-04T23:49:57;100671.97;;;15.57;46.80
31717;BME280;18301;51.076;17.046;2023-06-04T23:54:59;100665.81;;;15.55;46.29
